<?xml version="1.0" encoding="UTF-8" standalone="no" ?>
<gpx xmlns="http://www.topografix.com/GPX/1/1" xmlns:xsi="http://www.w3.org/2001/XMLSchema-instance" xsi:schemaLocation="http://www.topografix.com/GPX/1/1 http://www.topografix.com/GPX/1/1/gpx.xsd" version="1.1" creator="VisuGPX - https://www.visugpx.com">
  <metadata>
    <name>De Thiviers à Sorges</name>
    <desc><![CDATA[LE CHEMIN VERS COMPOSTELLE, LA VOIE DE VEZELAY d'EGUZON A ST JEAN-PIED-DE-PORT]]></desc>
  </metadata>
  <trk>
    <name><![CDATA[9552501-Thiviers - Sorges]]></name>
    <trkseg>
      <trkpt lat="45.41437" lon="0.9209">
        <ele>275</ele>
        <time>2019-02-08T15:07:35Z</time>
      </trkpt>
      <trkpt lat="45.41337" lon="0.9216">
        <ele>273</ele>
        <time>2019-02-08T15:08:35Z</time>
      </trkpt>
      <trkpt lat="45.41287" lon="0.92199">
        <ele>271</ele>
        <time>2019-02-08T15:09:35Z</time>
      </trkpt>
      <trkpt lat="45.41209" lon="0.92234">
        <ele>270</ele>
        <time>2019-02-08T15:10:35Z</time>
      </trkpt>
      <trkpt lat="45.41153" lon="0.92248">
        <ele>269</ele>
        <time>2019-02-08T15:11:35Z</time>
      </trkpt>
      <trkpt lat="45.41145" lon="0.92261">
        <ele>269</ele>
        <time>2019-02-08T15:12:35Z</time>
      </trkpt>
      <trkpt lat="45.41134" lon="0.92267">
        <ele>269</ele>
        <time>2019-02-08T15:13:35Z</time>
      </trkpt>
      <trkpt lat="45.41122" lon="0.92269">
        <ele>269</ele>
        <time>2019-02-08T15:14:35Z</time>
      </trkpt>
      <trkpt lat="45.40999" lon="0.92327">
        <ele>271</ele>
        <time>2019-02-08T15:15:35Z</time>
      </trkpt>
      <trkpt lat="45.40985" lon="0.92328">
        <ele>271</ele>
        <time>2019-02-08T15:16:35Z</time>
      </trkpt>
      <trkpt lat="45.40952" lon="0.9236">
        <ele>271</ele>
        <time>2019-02-08T15:17:35Z</time>
      </trkpt>
      <trkpt lat="45.40895" lon="0.92486">
        <ele>271</ele>
        <time>2019-02-08T15:18:35Z</time>
      </trkpt>
      <trkpt lat="45.40887" lon="0.92507">
        <ele>270</ele>
        <time>2019-02-08T15:19:35Z</time>
      </trkpt>
      <trkpt lat="45.40882" lon="0.92583">
        <ele>264</ele>
        <time>2019-02-08T15:20:35Z</time>
      </trkpt>
      <trkpt lat="45.40867" lon="0.92635">
        <ele>262</ele>
        <time>2019-02-08T15:21:35Z</time>
      </trkpt>
      <trkpt lat="45.40844" lon="0.92633">
        <ele>262</ele>
        <time>2019-02-08T15:22:35Z</time>
      </trkpt>
      <trkpt lat="45.40824" lon="0.92654">
        <ele>261</ele>
        <time>2019-02-08T15:23:35Z</time>
      </trkpt>
      <trkpt lat="45.40798" lon="0.927">
        <ele>257</ele>
        <time>2019-02-08T15:24:35Z</time>
      </trkpt>
      <trkpt lat="45.40769" lon="0.92747">
        <ele>255</ele>
        <time>2019-02-08T15:25:35Z</time>
      </trkpt>
      <trkpt lat="45.40745" lon="0.92767">
        <ele>254</ele>
        <time>2019-02-08T15:26:35Z</time>
      </trkpt>
      <trkpt lat="45.40715" lon="0.92792">
        <ele>252</ele>
        <time>2019-02-08T15:27:35Z</time>
      </trkpt>
      <trkpt lat="45.40624" lon="0.92768">
        <ele>239</ele>
        <time>2019-02-08T15:28:35Z</time>
      </trkpt>
      <trkpt lat="45.4059" lon="0.9277">
        <ele>235</ele>
        <time>2019-02-08T15:29:35Z</time>
      </trkpt>
      <trkpt lat="45.40534" lon="0.92782">
        <ele>233</ele>
        <time>2019-02-08T15:30:35Z</time>
      </trkpt>
      <trkpt lat="45.40513" lon="0.92795">
        <ele>233</ele>
        <time>2019-02-08T15:31:35Z</time>
      </trkpt>
      <trkpt lat="45.40415" lon="0.92808">
        <ele>232</ele>
        <time>2019-02-08T15:32:35Z</time>
      </trkpt>
      <trkpt lat="45.40385" lon="0.92805">
        <ele>233</ele>
        <time>2019-02-08T15:33:35Z</time>
      </trkpt>
      <trkpt lat="45.40322" lon="0.9278">
        <ele>232</ele>
        <time>2019-02-08T15:34:35Z</time>
      </trkpt>
      <trkpt lat="45.40248" lon="0.92717">
        <ele>226</ele>
        <time>2019-02-08T15:35:35Z</time>
      </trkpt>
      <trkpt lat="45.40186" lon="0.92709">
        <ele>230</ele>
        <time>2019-02-08T15:36:35Z</time>
      </trkpt>
      <trkpt lat="45.40147" lon="0.92676">
        <ele>231</ele>
        <time>2019-02-08T15:37:35Z</time>
      </trkpt>
      <trkpt lat="45.40119" lon="0.92689">
        <ele>234</ele>
        <time>2019-02-08T15:38:35Z</time>
      </trkpt>
      <trkpt lat="45.4007" lon="0.92701">
        <ele>237</ele>
        <time>2019-02-08T15:39:35Z</time>
      </trkpt>
      <trkpt lat="45.39939" lon="0.9275">
        <ele>238</ele>
        <time>2019-02-08T15:40:35Z</time>
      </trkpt>
      <trkpt lat="45.39927" lon="0.92761">
        <ele>238</ele>
        <time>2019-02-08T15:41:35Z</time>
      </trkpt>
      <trkpt lat="45.39902" lon="0.92751">
        <ele>237</ele>
        <time>2019-02-08T15:42:35Z</time>
      </trkpt>
      <trkpt lat="45.39877" lon="0.92735">
        <ele>235</ele>
        <time>2019-02-08T15:43:35Z</time>
      </trkpt>
      <trkpt lat="45.39901" lon="0.92666">
        <ele>233</ele>
        <time>2019-02-08T15:44:35Z</time>
      </trkpt>
      <trkpt lat="45.399" lon="0.92616">
        <ele>232</ele>
        <time>2019-02-08T15:45:35Z</time>
      </trkpt>
      <trkpt lat="45.3988" lon="0.92534">
        <ele>231</ele>
        <time>2019-02-08T15:46:35Z</time>
      </trkpt>
      <trkpt lat="45.39865" lon="0.92493">
        <ele>231</ele>
        <time>2019-02-08T15:47:35Z</time>
      </trkpt>
      <trkpt lat="45.39743" lon="0.92343">
        <ele>226</ele>
        <time>2019-02-08T15:48:35Z</time>
      </trkpt>
      <trkpt lat="45.39713" lon="0.92334">
        <ele>224</ele>
        <time>2019-02-08T15:49:35Z</time>
      </trkpt>
      <trkpt lat="45.39666" lon="0.92331">
        <ele>220</ele>
        <time>2019-02-08T15:50:35Z</time>
      </trkpt>
      <trkpt lat="45.39593" lon="0.92298">
        <ele>220</ele>
        <time>2019-02-08T15:51:35Z</time>
      </trkpt>
      <trkpt lat="45.39563" lon="0.9231">
        <ele>219</ele>
        <time>2019-02-08T15:52:35Z</time>
      </trkpt>
      <trkpt lat="45.39516" lon="0.92331">
        <ele>220</ele>
        <time>2019-02-08T15:53:35Z</time>
      </trkpt>
      <trkpt lat="45.3947" lon="0.92354">
        <ele>218</ele>
        <time>2019-02-08T15:54:35Z</time>
      </trkpt>
      <trkpt lat="45.39439" lon="0.9234">
        <ele>218</ele>
        <time>2019-02-08T15:55:35Z</time>
      </trkpt>
      <trkpt lat="45.39413" lon="0.9231">
        <ele>217</ele>
        <time>2019-02-08T15:56:35Z</time>
      </trkpt>
      <trkpt lat="45.39351" lon="0.92214">
        <ele>210</ele>
        <time>2019-02-08T15:57:35Z</time>
      </trkpt>
      <trkpt lat="45.39316" lon="0.92119">
        <ele>205</ele>
        <time>2019-02-08T15:58:35Z</time>
      </trkpt>
      <trkpt lat="45.39308" lon="0.92081">
        <ele>204</ele>
        <time>2019-02-08T15:59:35Z</time>
      </trkpt>
      <trkpt lat="45.39301" lon="0.92044">
        <ele>202</ele>
        <time>2019-02-08T16:00:35Z</time>
      </trkpt>
      <trkpt lat="45.39262" lon="0.92002">
        <ele>198</ele>
        <time>2019-02-08T16:01:35Z</time>
      </trkpt>
      <trkpt lat="45.39221" lon="0.91981">
        <ele>193</ele>
        <time>2019-02-08T16:02:35Z</time>
      </trkpt>
      <trkpt lat="45.39201" lon="0.91961">
        <ele>190</ele>
        <time>2019-02-08T16:03:35Z</time>
      </trkpt>
      <trkpt lat="45.39168" lon="0.91887">
        <ele>183</ele>
        <time>2019-02-08T16:04:35Z</time>
      </trkpt>
      <trkpt lat="45.39183" lon="0.91847">
        <ele>183</ele>
        <time>2019-02-08T16:05:35Z</time>
      </trkpt>
      <trkpt lat="45.39187" lon="0.91812">
        <ele>180</ele>
        <time>2019-02-08T16:06:35Z</time>
      </trkpt>
      <trkpt lat="45.39178" lon="0.91792">
        <ele>176</ele>
        <time>2019-02-08T16:07:35Z</time>
      </trkpt>
      <trkpt lat="45.39163" lon="0.91777">
        <ele>173</ele>
        <time>2019-02-08T16:08:35Z</time>
      </trkpt>
      <trkpt lat="45.39141" lon="0.91783">
        <ele>172</ele>
        <time>2019-02-08T16:09:35Z</time>
      </trkpt>
      <trkpt lat="45.39113" lon="0.91792">
        <ele>171</ele>
        <time>2019-02-08T16:10:35Z</time>
      </trkpt>
      <trkpt lat="45.39088" lon="0.91785">
        <ele>168</ele>
        <time>2019-02-08T16:11:35Z</time>
      </trkpt>
      <trkpt lat="45.3907" lon="0.91756">
        <ele>166</ele>
        <time>2019-02-08T16:12:35Z</time>
      </trkpt>
      <trkpt lat="45.39075" lon="0.917">
        <ele>167</ele>
        <time>2019-02-08T16:13:35Z</time>
      </trkpt>
      <trkpt lat="45.3909" lon="0.91615">
        <ele>169</ele>
        <time>2019-02-08T16:14:35Z</time>
      </trkpt>
      <trkpt lat="45.39053" lon="0.91624">
        <ele>171</ele>
        <time>2019-02-08T16:15:35Z</time>
      </trkpt>
      <trkpt lat="45.39025" lon="0.91638">
        <ele>174</ele>
        <time>2019-02-08T16:16:35Z</time>
      </trkpt>
      <trkpt lat="45.39008" lon="0.91559">
        <ele>178</ele>
        <time>2019-02-08T16:17:35Z</time>
      </trkpt>
      <trkpt lat="45.38994" lon="0.91475">
        <ele>179</ele>
        <time>2019-02-08T16:18:35Z</time>
      </trkpt>
      <trkpt lat="45.38963" lon="0.91406">
        <ele>184</ele>
        <time>2019-02-08T16:19:35Z</time>
      </trkpt>
      <trkpt lat="45.38938" lon="0.91383">
        <ele>187</ele>
        <time>2019-02-08T16:20:35Z</time>
      </trkpt>
      <trkpt lat="45.38924" lon="0.91357">
        <ele>189</ele>
        <time>2019-02-08T16:21:35Z</time>
      </trkpt>
      <trkpt lat="45.38919" lon="0.91328">
        <ele>189</ele>
        <time>2019-02-08T16:22:35Z</time>
      </trkpt>
      <trkpt lat="45.38903" lon="0.91307">
        <ele>192</ele>
        <time>2019-02-08T16:23:35Z</time>
      </trkpt>
      <trkpt lat="45.38866" lon="0.91277">
        <ele>196</ele>
        <time>2019-02-08T16:24:35Z</time>
      </trkpt>
      <trkpt lat="45.38834" lon="0.91302">
        <ele>199</ele>
        <time>2019-02-08T16:25:35Z</time>
      </trkpt>
      <trkpt lat="45.3877" lon="0.91275">
        <ele>204</ele>
        <time>2019-02-08T16:26:35Z</time>
      </trkpt>
      <trkpt lat="45.38706" lon="0.91249">
        <ele>209</ele>
        <time>2019-02-08T16:27:35Z</time>
      </trkpt>
      <trkpt lat="45.38671" lon="0.91239">
        <ele>212</ele>
        <time>2019-02-08T16:28:35Z</time>
      </trkpt>
      <trkpt lat="45.3866" lon="0.9128">
        <ele>211</ele>
        <time>2019-02-08T16:29:35Z</time>
      </trkpt>
      <trkpt lat="45.38658" lon="0.91343">
        <ele>209</ele>
        <time>2019-02-08T16:30:35Z</time>
      </trkpt>
      <trkpt lat="45.38671" lon="0.91389">
        <ele>211</ele>
        <time>2019-02-08T16:31:35Z</time>
      </trkpt>
      <trkpt lat="45.38693" lon="0.91436">
        <ele>211</ele>
        <time>2019-02-08T16:32:35Z</time>
      </trkpt>
      <trkpt lat="45.38703" lon="0.91491">
        <ele>209</ele>
        <time>2019-02-08T16:33:35Z</time>
      </trkpt>
      <trkpt lat="45.38702" lon="0.91539">
        <ele>209</ele>
        <time>2019-02-08T16:34:35Z</time>
      </trkpt>
      <trkpt lat="45.38697" lon="0.91577">
        <ele>209</ele>
        <time>2019-02-08T16:35:35Z</time>
      </trkpt>
      <trkpt lat="45.38675" lon="0.91615">
        <ele>209</ele>
        <time>2019-02-08T16:36:35Z</time>
      </trkpt>
      <trkpt lat="45.38649" lon="0.91704">
        <ele>204</ele>
        <time>2019-02-08T16:37:35Z</time>
      </trkpt>
      <trkpt lat="45.38623" lon="0.91753">
        <ele>199</ele>
        <time>2019-02-08T16:38:35Z</time>
      </trkpt>
      <trkpt lat="45.38596" lon="0.91789">
        <ele>198</ele>
        <time>2019-02-08T16:39:35Z</time>
      </trkpt>
      <trkpt lat="45.38586" lon="0.91814">
        <ele>197</ele>
        <time>2019-02-08T16:40:35Z</time>
      </trkpt>
      <trkpt lat="45.38582" lon="0.91826">
        <ele>196</ele>
        <time>2019-02-08T16:41:35Z</time>
      </trkpt>
      <trkpt lat="45.38562" lon="0.91824">
        <ele>195</ele>
        <time>2019-02-08T16:42:35Z</time>
      </trkpt>
      <trkpt lat="45.38513" lon="0.91802">
        <ele>191</ele>
        <time>2019-02-08T16:43:35Z</time>
      </trkpt>
      <trkpt lat="45.38484" lon="0.91789">
        <ele>189</ele>
        <time>2019-02-08T16:44:35Z</time>
      </trkpt>
      <trkpt lat="45.38472" lon="0.91768">
        <ele>187</ele>
        <time>2019-02-08T16:45:35Z</time>
      </trkpt>
      <trkpt lat="45.38429" lon="0.91779">
        <ele>182</ele>
        <time>2019-02-08T16:46:35Z</time>
      </trkpt>
      <trkpt lat="45.38413" lon="0.9177">
        <ele>181</ele>
        <time>2019-02-08T16:47:35Z</time>
      </trkpt>
      <trkpt lat="45.38385" lon="0.91745">
        <ele>181</ele>
        <time>2019-02-08T16:48:35Z</time>
      </trkpt>
      <trkpt lat="45.38367" lon="0.91747">
        <ele>181</ele>
        <time>2019-02-08T16:49:35Z</time>
      </trkpt>
      <trkpt lat="45.38318" lon="0.91772">
        <ele>182</ele>
        <time>2019-02-08T16:50:35Z</time>
      </trkpt>
      <trkpt lat="45.38275" lon="0.9178">
        <ele>185</ele>
        <time>2019-02-08T16:51:35Z</time>
      </trkpt>
      <trkpt lat="45.38264" lon="0.9178">
        <ele>185</ele>
        <time>2019-02-08T16:52:35Z</time>
      </trkpt>
      <trkpt lat="45.3824" lon="0.91769">
        <ele>186</ele>
        <time>2019-02-08T16:53:35Z</time>
      </trkpt>
      <trkpt lat="45.38176" lon="0.91779">
        <ele>192</ele>
        <time>2019-02-08T16:54:35Z</time>
      </trkpt>
      <trkpt lat="45.38155" lon="0.91778">
        <ele>193</ele>
        <time>2019-02-08T16:55:35Z</time>
      </trkpt>
      <trkpt lat="45.38145" lon="0.91782">
        <ele>194</ele>
        <time>2019-02-08T16:56:35Z</time>
      </trkpt>
      <trkpt lat="45.38113" lon="0.91745">
        <ele>196</ele>
        <time>2019-02-08T16:57:35Z</time>
      </trkpt>
      <trkpt lat="45.38071" lon="0.91717">
        <ele>197</ele>
        <time>2019-02-08T16:58:35Z</time>
      </trkpt>
      <trkpt lat="45.38036" lon="0.9169">
        <ele>198</ele>
        <time>2019-02-08T16:59:35Z</time>
      </trkpt>
      <trkpt lat="45.37995" lon="0.9166">
        <ele>200</ele>
        <time>2019-02-08T17:00:35Z</time>
      </trkpt>
      <trkpt lat="45.37958" lon="0.91647">
        <ele>201</ele>
        <time>2019-02-08T17:01:35Z</time>
      </trkpt>
      <trkpt lat="45.37945" lon="0.91633">
        <ele>202</ele>
        <time>2019-02-08T17:02:35Z</time>
      </trkpt>
      <trkpt lat="45.37916" lon="0.91614">
        <ele>203</ele>
        <time>2019-02-08T17:03:35Z</time>
      </trkpt>
      <trkpt lat="45.37897" lon="0.91609">
        <ele>204</ele>
        <time>2019-02-08T17:04:35Z</time>
      </trkpt>
      <trkpt lat="45.37861" lon="0.91591">
        <ele>206</ele>
        <time>2019-02-08T17:05:35Z</time>
      </trkpt>
      <trkpt lat="45.37842" lon="0.91582">
        <ele>207</ele>
        <time>2019-02-08T17:06:35Z</time>
      </trkpt>
      <trkpt lat="45.37802" lon="0.91636">
        <ele>206</ele>
        <time>2019-02-08T17:07:35Z</time>
      </trkpt>
      <trkpt lat="45.37769" lon="0.91664">
        <ele>206</ele>
        <time>2019-02-08T17:08:35Z</time>
      </trkpt>
      <trkpt lat="45.37737" lon="0.91691">
        <ele>205</ele>
        <time>2019-02-08T17:09:35Z</time>
      </trkpt>
      <trkpt lat="45.37718" lon="0.917">
        <ele>205</ele>
        <time>2019-02-08T17:10:35Z</time>
      </trkpt>
      <trkpt lat="45.37685" lon="0.91733">
        <ele>205</ele>
        <time>2019-02-08T17:11:35Z</time>
      </trkpt>
      <trkpt lat="45.37676" lon="0.91824">
        <ele>206</ele>
        <time>2019-02-08T17:12:35Z</time>
      </trkpt>
      <trkpt lat="45.37661" lon="0.91884">
        <ele>207</ele>
        <time>2019-02-08T17:13:35Z</time>
      </trkpt>
      <trkpt lat="45.37639" lon="0.91958">
        <ele>206</ele>
        <time>2019-02-08T17:14:35Z</time>
      </trkpt>
      <trkpt lat="45.37618" lon="0.91981">
        <ele>205</ele>
        <time>2019-02-08T17:15:35Z</time>
      </trkpt>
      <trkpt lat="45.37607" lon="0.92003">
        <ele>204</ele>
        <time>2019-02-08T17:16:35Z</time>
      </trkpt>
      <trkpt lat="45.37597" lon="0.92028">
        <ele>202</ele>
        <time>2019-02-08T17:17:35Z</time>
      </trkpt>
      <trkpt lat="45.37583" lon="0.91959">
        <ele>205</ele>
        <time>2019-02-08T17:18:35Z</time>
      </trkpt>
      <trkpt lat="45.37566" lon="0.91915">
        <ele>204</ele>
        <time>2019-02-08T17:19:35Z</time>
      </trkpt>
      <trkpt lat="45.37549" lon="0.91861">
        <ele>201</ele>
        <time>2019-02-08T17:20:35Z</time>
      </trkpt>
      <trkpt lat="45.37527" lon="0.91791">
        <ele>197</ele>
        <time>2019-02-08T17:21:35Z</time>
      </trkpt>
      <trkpt lat="45.37517" lon="0.91729">
        <ele>194</ele>
        <time>2019-02-08T17:22:35Z</time>
      </trkpt>
      <trkpt lat="45.37523" lon="0.9166">
        <ele>191</ele>
        <time>2019-02-08T17:23:35Z</time>
      </trkpt>
      <trkpt lat="45.37524" lon="0.91624">
        <ele>191</ele>
        <time>2019-02-08T17:24:35Z</time>
      </trkpt>
      <trkpt lat="45.37514" lon="0.91512">
        <ele>189</ele>
        <time>2019-02-08T17:25:35Z</time>
      </trkpt>
      <trkpt lat="45.37507" lon="0.91389">
        <ele>188</ele>
        <time>2019-02-08T17:26:35Z</time>
      </trkpt>
      <trkpt lat="45.37527" lon="0.91161">
        <ele>199</ele>
        <time>2019-02-08T17:27:35Z</time>
      </trkpt>
      <trkpt lat="45.37528" lon="0.91132">
        <ele>201</ele>
        <time>2019-02-08T17:28:35Z</time>
      </trkpt>
      <trkpt lat="45.37522" lon="0.91101">
        <ele>202</ele>
        <time>2019-02-08T17:29:35Z</time>
      </trkpt>
      <trkpt lat="45.37507" lon="0.91051">
        <ele>203</ele>
        <time>2019-02-08T17:30:35Z</time>
      </trkpt>
      <trkpt lat="45.37468" lon="0.9092">
        <ele>197</ele>
        <time>2019-02-08T17:31:35Z</time>
      </trkpt>
      <trkpt lat="45.37431" lon="0.90799">
        <ele>194</ele>
        <time>2019-02-08T17:32:35Z</time>
      </trkpt>
      <trkpt lat="45.37355" lon="0.90577">
        <ele>198</ele>
        <time>2019-02-08T17:33:35Z</time>
      </trkpt>
      <trkpt lat="45.3734" lon="0.9056">
        <ele>198</ele>
        <time>2019-02-08T17:34:35Z</time>
      </trkpt>
      <trkpt lat="45.37307" lon="0.90497">
        <ele>198</ele>
        <time>2019-02-08T17:35:35Z</time>
      </trkpt>
      <trkpt lat="45.373" lon="0.90462">
        <ele>197</ele>
        <time>2019-02-08T17:36:35Z</time>
      </trkpt>
      <trkpt lat="45.37295" lon="0.90431">
        <ele>197</ele>
        <time>2019-02-08T17:37:35Z</time>
      </trkpt>
      <trkpt lat="45.3729" lon="0.90404">
        <ele>196</ele>
        <time>2019-02-08T17:38:35Z</time>
      </trkpt>
      <trkpt lat="45.3728" lon="0.90374">
        <ele>193</ele>
        <time>2019-02-08T17:39:35Z</time>
      </trkpt>
      <trkpt lat="45.37253" lon="0.90331">
        <ele>191</ele>
        <time>2019-02-08T17:40:35Z</time>
      </trkpt>
      <trkpt lat="45.37292" lon="0.90211">
        <ele>189</ele>
        <time>2019-02-08T17:41:35Z</time>
      </trkpt>
      <trkpt lat="45.373" lon="0.9018">
        <ele>190</ele>
        <time>2019-02-08T17:42:35Z</time>
      </trkpt>
      <trkpt lat="45.37314" lon="0.90075">
        <ele>191</ele>
        <time>2019-02-08T17:43:35Z</time>
      </trkpt>
      <trkpt lat="45.37072" lon="0.89966">
        <ele>183</ele>
        <time>2019-02-08T17:44:35Z</time>
      </trkpt>
      <trkpt lat="45.36824" lon="0.89864">
        <ele>181</ele>
        <time>2019-02-08T17:45:35Z</time>
      </trkpt>
      <trkpt lat="45.36735" lon="0.8982">
        <ele>179</ele>
        <time>2019-02-08T17:46:35Z</time>
      </trkpt>
      <trkpt lat="45.36701" lon="0.89785">
        <ele>182</ele>
        <time>2019-02-08T17:47:35Z</time>
      </trkpt>
      <trkpt lat="45.36662" lon="0.89717">
        <ele>184</ele>
        <time>2019-02-08T17:48:35Z</time>
      </trkpt>
      <trkpt lat="45.36623" lon="0.8969">
        <ele>186</ele>
        <time>2019-02-08T17:49:35Z</time>
      </trkpt>
      <trkpt lat="45.36232" lon="0.89457">
        <ele>185</ele>
        <time>2019-02-08T17:50:35Z</time>
      </trkpt>
      <trkpt lat="45.36158" lon="0.89415">
        <ele>186</ele>
        <time>2019-02-08T17:51:35Z</time>
      </trkpt>
      <trkpt lat="45.3618" lon="0.8931">
        <ele>189</ele>
        <time>2019-02-08T17:52:35Z</time>
      </trkpt>
      <trkpt lat="45.36183" lon="0.8928">
        <ele>189</ele>
        <time>2019-02-08T17:53:35Z</time>
      </trkpt>
      <trkpt lat="45.36181" lon="0.89262">
        <ele>190</ele>
        <time>2019-02-08T17:54:35Z</time>
      </trkpt>
      <trkpt lat="45.36155" lon="0.89209">
        <ele>191</ele>
        <time>2019-02-08T17:55:35Z</time>
      </trkpt>
      <trkpt lat="45.3615" lon="0.89184">
        <ele>192</ele>
        <time>2019-02-08T17:56:35Z</time>
      </trkpt>
      <trkpt lat="45.36161" lon="0.89122">
        <ele>193</ele>
        <time>2019-02-08T17:57:35Z</time>
      </trkpt>
      <trkpt lat="45.36141" lon="0.88948">
        <ele>197</ele>
        <time>2019-02-08T17:58:35Z</time>
      </trkpt>
      <trkpt lat="45.36159" lon="0.88894">
        <ele>196</ele>
        <time>2019-02-08T17:59:35Z</time>
      </trkpt>
      <trkpt lat="45.36166" lon="0.88837">
        <ele>192</ele>
        <time>2019-02-08T18:00:35Z</time>
      </trkpt>
      <trkpt lat="45.36145" lon="0.88781">
        <ele>192</ele>
        <time>2019-02-08T18:01:35Z</time>
      </trkpt>
      <trkpt lat="45.3608" lon="0.88606">
        <ele>193</ele>
        <time>2019-02-08T18:02:35Z</time>
      </trkpt>
      <trkpt lat="45.36071" lon="0.88583">
        <ele>192</ele>
        <time>2019-02-08T18:03:35Z</time>
      </trkpt>
      <trkpt lat="45.36052" lon="0.88573">
        <ele>192</ele>
        <time>2019-02-08T18:04:35Z</time>
      </trkpt>
      <trkpt lat="45.36042" lon="0.88536">
        <ele>191</ele>
        <time>2019-02-08T18:05:35Z</time>
      </trkpt>
      <trkpt lat="45.36016" lon="0.88483">
        <ele>191</ele>
        <time>2019-02-08T18:06:35Z</time>
      </trkpt>
      <trkpt lat="45.35998" lon="0.88451">
        <ele>192</ele>
        <time>2019-02-08T18:07:35Z</time>
      </trkpt>
      <trkpt lat="45.3598" lon="0.88397">
        <ele>190</ele>
        <time>2019-02-08T18:08:35Z</time>
      </trkpt>
      <trkpt lat="45.35936" lon="0.8835">
        <ele>187</ele>
        <time>2019-02-08T18:09:35Z</time>
      </trkpt>
      <trkpt lat="45.3589" lon="0.88354">
        <ele>189</ele>
        <time>2019-02-08T18:10:35Z</time>
      </trkpt>
      <trkpt lat="45.3589" lon="0.88283">
        <ele>187</ele>
        <time>2019-02-08T18:11:35Z</time>
      </trkpt>
      <trkpt lat="45.35849" lon="0.88257">
        <ele>190</ele>
        <time>2019-02-08T18:12:35Z</time>
      </trkpt>
      <trkpt lat="45.35794" lon="0.88247">
        <ele>192</ele>
        <time>2019-02-08T18:13:35Z</time>
      </trkpt>
      <trkpt lat="45.35735" lon="0.88239">
        <ele>194</ele>
        <time>2019-02-08T18:14:35Z</time>
      </trkpt>
      <trkpt lat="45.3562" lon="0.88178">
        <ele>195</ele>
        <time>2019-02-08T18:15:35Z</time>
      </trkpt>
      <trkpt lat="45.35561" lon="0.88187">
        <ele>195</ele>
        <time>2019-02-08T18:16:35Z</time>
      </trkpt>
      <trkpt lat="45.35545" lon="0.88124">
        <ele>195</ele>
        <time>2019-02-08T18:17:35Z</time>
      </trkpt>
      <trkpt lat="45.35521" lon="0.88078">
        <ele>197</ele>
        <time>2019-02-08T18:18:35Z</time>
      </trkpt>
      <trkpt lat="45.35516" lon="0.8801">
        <ele>200</ele>
        <time>2019-02-08T18:19:35Z</time>
      </trkpt>
      <trkpt lat="45.35512" lon="0.87931">
        <ele>201</ele>
        <time>2019-02-08T18:20:35Z</time>
      </trkpt>
      <trkpt lat="45.35477" lon="0.87779">
        <ele>195</ele>
        <time>2019-02-08T18:21:35Z</time>
      </trkpt>
      <trkpt lat="45.35469" lon="0.87714">
        <ele>193</ele>
        <time>2019-02-08T18:22:35Z</time>
      </trkpt>
      <trkpt lat="45.35473" lon="0.87681">
        <ele>191</ele>
        <time>2019-02-08T18:23:35Z</time>
      </trkpt>
      <trkpt lat="45.35479" lon="0.87621">
        <ele>188</ele>
        <time>2019-02-08T18:24:35Z</time>
      </trkpt>
      <trkpt lat="45.35475" lon="0.87599">
        <ele>187</ele>
        <time>2019-02-08T18:25:35Z</time>
      </trkpt>
      <trkpt lat="45.35463" lon="0.87571">
        <ele>187</ele>
        <time>2019-02-08T18:26:35Z</time>
      </trkpt>
      <trkpt lat="45.35433" lon="0.87549">
        <ele>188</ele>
        <time>2019-02-08T18:27:35Z</time>
      </trkpt>
      <trkpt lat="45.35399" lon="0.87567">
        <ele>188</ele>
        <time>2019-02-08T18:28:35Z</time>
      </trkpt>
      <trkpt lat="45.35356" lon="0.87564">
        <ele>186</ele>
        <time>2019-02-08T18:29:35Z</time>
      </trkpt>
      <trkpt lat="45.35344" lon="0.87605">
        <ele>187</ele>
        <time>2019-02-08T18:30:35Z</time>
      </trkpt>
      <trkpt lat="45.35328" lon="0.87605">
        <ele>186</ele>
        <time>2019-02-08T18:31:35Z</time>
      </trkpt>
      <trkpt lat="45.35314" lon="0.87594">
        <ele>185</ele>
        <time>2019-02-08T18:32:35Z</time>
      </trkpt>
      <trkpt lat="45.35301" lon="0.876">
        <ele>185</ele>
        <time>2019-02-08T18:33:35Z</time>
      </trkpt>
      <trkpt lat="45.35269" lon="0.87602">
        <ele>185</ele>
        <time>2019-02-08T18:34:35Z</time>
      </trkpt>
      <trkpt lat="45.35257" lon="0.87585">
        <ele>184</ele>
        <time>2019-02-08T18:35:35Z</time>
      </trkpt>
      <trkpt lat="45.35234" lon="0.87571">
        <ele>185</ele>
        <time>2019-02-08T18:36:35Z</time>
      </trkpt>
      <trkpt lat="45.35219" lon="0.87518">
        <ele>184</ele>
        <time>2019-02-08T18:37:35Z</time>
      </trkpt>
      <trkpt lat="45.35209" lon="0.875">
        <ele>184</ele>
        <time>2019-02-08T18:38:35Z</time>
      </trkpt>
      <trkpt lat="45.35175" lon="0.87465">
        <ele>184</ele>
        <time>2019-02-08T18:39:35Z</time>
      </trkpt>
      <trkpt lat="45.35165" lon="0.87438">
        <ele>182</ele>
        <time>2019-02-08T18:40:35Z</time>
      </trkpt>
      <trkpt lat="45.35153" lon="0.8742">
        <ele>182</ele>
        <time>2019-02-08T18:41:35Z</time>
      </trkpt>
      <trkpt lat="45.35134" lon="0.87403">
        <ele>182</ele>
        <time>2019-02-08T18:42:35Z</time>
      </trkpt>
      <trkpt lat="45.35124" lon="0.874">
        <ele>183</ele>
        <time>2019-02-08T18:43:35Z</time>
      </trkpt>
      <trkpt lat="45.35122" lon="0.87383">
        <ele>183</ele>
        <time>2019-02-08T18:44:35Z</time>
      </trkpt>
      <trkpt lat="45.35059" lon="0.87318">
        <ele>184</ele>
        <time>2019-02-08T18:45:35Z</time>
      </trkpt>
      <trkpt lat="45.35034" lon="0.87279">
        <ele>186</ele>
        <time>2019-02-08T18:46:35Z</time>
      </trkpt>
      <trkpt lat="45.35015" lon="0.87254">
        <ele>187</ele>
        <time>2019-02-08T18:47:35Z</time>
      </trkpt>
      <trkpt lat="45.34991" lon="0.87263">
        <ele>188</ele>
        <time>2019-02-08T18:48:35Z</time>
      </trkpt>
      <trkpt lat="45.34965" lon="0.87266">
        <ele>188</ele>
        <time>2019-02-08T18:49:35Z</time>
      </trkpt>
      <trkpt lat="45.34938" lon="0.87348">
        <ele>186</ele>
        <time>2019-02-08T18:50:35Z</time>
      </trkpt>
      <trkpt lat="45.34933" lon="0.87386">
        <ele>186</ele>
        <time>2019-02-08T18:51:35Z</time>
      </trkpt>
      <trkpt lat="45.34925" lon="0.87411">
        <ele>186</ele>
        <time>2019-02-08T18:52:35Z</time>
      </trkpt>
      <trkpt lat="45.34912" lon="0.8742">
        <ele>186</ele>
        <time>2019-02-08T18:53:35Z</time>
      </trkpt>
      <trkpt lat="45.34889" lon="0.87429">
        <ele>186</ele>
        <time>2019-02-08T18:54:35Z</time>
      </trkpt>
      <trkpt lat="45.34884" lon="0.87401">
        <ele>187</ele>
        <time>2019-02-08T18:55:35Z</time>
      </trkpt>
      <trkpt lat="45.34814" lon="0.87266">
        <ele>191</ele>
        <time>2019-02-08T18:56:35Z</time>
      </trkpt>
      <trkpt lat="45.34781" lon="0.8716">
        <ele>186</ele>
        <time>2019-02-08T18:57:35Z</time>
      </trkpt>
      <trkpt lat="45.34775" lon="0.87116">
        <ele>186</ele>
        <time>2019-02-08T18:58:35Z</time>
      </trkpt>
      <trkpt lat="45.34753" lon="0.87063">
        <ele>184</ele>
        <time>2019-02-08T18:59:35Z</time>
      </trkpt>
      <trkpt lat="45.34742" lon="0.87048">
        <ele>183</ele>
        <time>2019-02-08T19:00:35Z</time>
      </trkpt>
      <trkpt lat="45.34717" lon="0.8706">
        <ele>182</ele>
        <time>2019-02-08T19:01:35Z</time>
      </trkpt>
      <trkpt lat="45.34691" lon="0.87075">
        <ele>181</ele>
        <time>2019-02-08T19:02:35Z</time>
      </trkpt>
      <trkpt lat="45.34641" lon="0.87086">
        <ele>178</ele>
        <time>2019-02-08T19:03:35Z</time>
      </trkpt>
      <trkpt lat="45.34598" lon="0.87093">
        <ele>177</ele>
        <time>2019-02-08T19:04:35Z</time>
      </trkpt>
      <trkpt lat="45.34609" lon="0.86971">
        <ele>177</ele>
        <time>2019-02-08T19:05:35Z</time>
      </trkpt>
      <trkpt lat="45.3461" lon="0.86927">
        <ele>179</ele>
        <time>2019-02-08T19:06:35Z</time>
      </trkpt>
      <trkpt lat="45.34618" lon="0.86866">
        <ele>182</ele>
        <time>2019-02-08T19:07:35Z</time>
      </trkpt>
      <trkpt lat="45.34629" lon="0.86807">
        <ele>185</ele>
        <time>2019-02-08T19:08:35Z</time>
      </trkpt>
      <trkpt lat="45.34628" lon="0.86744">
        <ele>187</ele>
        <time>2019-02-08T19:09:35Z</time>
      </trkpt>
      <trkpt lat="45.34623" lon="0.86705">
        <ele>187</ele>
        <time>2019-02-08T19:10:35Z</time>
      </trkpt>
      <trkpt lat="45.34598" lon="0.86635">
        <ele>185</ele>
        <time>2019-02-08T19:11:35Z</time>
      </trkpt>
      <trkpt lat="45.34588" lon="0.86588">
        <ele>183</ele>
        <time>2019-02-08T19:12:35Z</time>
      </trkpt>
      <trkpt lat="45.34582" lon="0.86515">
        <ele>181</ele>
        <time>2019-02-08T19:13:35Z</time>
      </trkpt>
      <trkpt lat="45.3457" lon="0.86482">
        <ele>181</ele>
        <time>2019-02-08T19:14:35Z</time>
      </trkpt>
      <trkpt lat="45.34544" lon="0.86429">
        <ele>181</ele>
        <time>2019-02-08T19:15:35Z</time>
      </trkpt>
      <trkpt lat="45.34508" lon="0.86411">
        <ele>182</ele>
        <time>2019-02-08T19:16:35Z</time>
      </trkpt>
      <trkpt lat="45.34462" lon="0.86396">
        <ele>181</ele>
        <time>2019-02-08T19:17:35Z</time>
      </trkpt>
      <trkpt lat="45.34416" lon="0.86361">
        <ele>179</ele>
        <time>2019-02-08T19:18:35Z</time>
      </trkpt>
      <trkpt lat="45.34364" lon="0.86333">
        <ele>175</ele>
        <time>2019-02-08T19:19:35Z</time>
      </trkpt>
      <trkpt lat="45.3432" lon="0.86312">
        <ele>173</ele>
        <time>2019-02-08T19:20:35Z</time>
      </trkpt>
      <trkpt lat="45.34234" lon="0.86259">
        <ele>170</ele>
        <time>2019-02-08T19:21:35Z</time>
      </trkpt>
      <trkpt lat="45.34162" lon="0.86226">
        <ele>168</ele>
        <time>2019-02-08T19:22:35Z</time>
      </trkpt>
      <trkpt lat="45.34006" lon="0.86106">
        <ele>167</ele>
        <time>2019-02-08T19:23:35Z</time>
      </trkpt>
      <trkpt lat="45.33969" lon="0.86081">
        <ele>166</ele>
        <time>2019-02-08T19:24:35Z</time>
      </trkpt>
      <trkpt lat="45.33923" lon="0.86053">
        <ele>165</ele>
        <time>2019-02-08T19:25:35Z</time>
      </trkpt>
      <trkpt lat="45.33896" lon="0.86043">
        <ele>165</ele>
        <time>2019-02-08T19:26:35Z</time>
      </trkpt>
      <trkpt lat="45.33882" lon="0.86048">
        <ele>165</ele>
        <time>2019-02-08T19:27:35Z</time>
      </trkpt>
      <trkpt lat="45.33862" lon="0.86135">
        <ele>166</ele>
        <time>2019-02-08T19:28:35Z</time>
      </trkpt>
      <trkpt lat="45.33843" lon="0.86235">
        <ele>169</ele>
        <time>2019-02-08T19:29:35Z</time>
      </trkpt>
      <trkpt lat="45.33842" lon="0.86251">
        <ele>169</ele>
        <time>2019-02-08T19:30:35Z</time>
      </trkpt>
      <trkpt lat="45.33862" lon="0.86267">
        <ele>169</ele>
        <time>2019-02-08T19:31:35Z</time>
      </trkpt>
      <trkpt lat="45.33925" lon="0.86286">
        <ele>170</ele>
        <time>2019-02-08T19:32:35Z</time>
      </trkpt>
      <trkpt lat="45.33909" lon="0.86414">
        <ele>173</ele>
        <time>2019-02-08T19:33:35Z</time>
      </trkpt>
      <trkpt lat="45.33894" lon="0.86458">
        <ele>171</ele>
        <time>2019-02-08T19:34:35Z</time>
      </trkpt>
      <trkpt lat="45.33868" lon="0.86496">
        <ele>170</ele>
        <time>2019-02-08T19:35:35Z</time>
      </trkpt>
      <trkpt lat="45.33841" lon="0.86544">
        <ele>170</ele>
        <time>2019-02-08T19:36:35Z</time>
      </trkpt>
      <trkpt lat="45.33817" lon="0.86588">
        <ele>170</ele>
        <time>2019-02-08T19:37:35Z</time>
      </trkpt>
      <trkpt lat="45.33785" lon="0.86622">
        <ele>171</ele>
        <time>2019-02-08T19:38:35Z</time>
      </trkpt>
      <trkpt lat="45.33753" lon="0.86617">
        <ele>172</ele>
        <time>2019-02-08T19:39:35Z</time>
      </trkpt>
      <trkpt lat="45.33697" lon="0.86596">
        <ele>171</ele>
        <time>2019-02-08T19:40:35Z</time>
      </trkpt>
      <trkpt lat="45.33643" lon="0.86559">
        <ele>172</ele>
        <time>2019-02-08T19:41:35Z</time>
      </trkpt>
      <trkpt lat="45.33601" lon="0.8664">
        <ele>172</ele>
        <time>2019-02-08T19:42:35Z</time>
      </trkpt>
      <trkpt lat="45.33582" lon="0.8666">
        <ele>172</ele>
        <time>2019-02-08T19:43:35Z</time>
      </trkpt>
      <trkpt lat="45.33548" lon="0.8667">
        <ele>172</ele>
        <time>2019-02-08T19:44:35Z</time>
      </trkpt>
      <trkpt lat="45.33538" lon="0.86684">
        <ele>173</ele>
        <time>2019-02-08T19:45:35Z</time>
      </trkpt>
      <trkpt lat="45.33513" lon="0.86669">
        <ele>173</ele>
        <time>2019-02-08T19:46:35Z</time>
      </trkpt>
      <trkpt lat="45.33461" lon="0.86656">
        <ele>174</ele>
        <time>2019-02-08T19:47:35Z</time>
      </trkpt>
      <trkpt lat="45.33401" lon="0.86623">
        <ele>176</ele>
        <time>2019-02-08T19:48:35Z</time>
      </trkpt>
      <trkpt lat="45.33305" lon="0.86599">
        <ele>178</ele>
        <time>2019-02-08T19:49:35Z</time>
      </trkpt>
      <trkpt lat="45.33235" lon="0.86579">
        <ele>181</ele>
        <time>2019-02-08T19:50:35Z</time>
      </trkpt>
      <trkpt lat="45.33198" lon="0.86568">
        <ele>183</ele>
        <time>2019-02-08T19:51:35Z</time>
      </trkpt>
      <trkpt lat="45.33128" lon="0.86526">
        <ele>185</ele>
        <time>2019-02-08T19:52:35Z</time>
      </trkpt>
      <trkpt lat="45.33033" lon="0.86534">
        <ele>189</ele>
        <time>2019-02-08T19:53:35Z</time>
      </trkpt>
      <trkpt lat="45.32975" lon="0.86506">
        <ele>191</ele>
        <time>2019-02-08T19:54:35Z</time>
      </trkpt>
      <trkpt lat="45.32931" lon="0.86488">
        <ele>193</ele>
        <time>2019-02-08T19:55:35Z</time>
      </trkpt>
      <trkpt lat="45.32887" lon="0.86477">
        <ele>195</ele>
        <time>2019-02-08T19:56:35Z</time>
      </trkpt>
      <trkpt lat="45.32859" lon="0.86464">
        <ele>195</ele>
        <time>2019-02-08T19:57:35Z</time>
      </trkpt>
      <trkpt lat="45.32848" lon="0.8645">
        <ele>196</ele>
        <time>2019-02-08T19:58:35Z</time>
      </trkpt>
      <trkpt lat="45.3281" lon="0.86436">
        <ele>197</ele>
        <time>2019-02-08T19:59:35Z</time>
      </trkpt>
      <trkpt lat="45.32776" lon="0.86432">
        <ele>198</ele>
        <time>2019-02-08T20:00:35Z</time>
      </trkpt>
      <trkpt lat="45.32714" lon="0.86418">
        <ele>198</ele>
        <time>2019-02-08T20:01:35Z</time>
      </trkpt>
      <trkpt lat="45.32688" lon="0.86406">
        <ele>198</ele>
        <time>2019-02-08T20:02:35Z</time>
      </trkpt>
      <trkpt lat="45.3253" lon="0.86304">
        <ele>189</ele>
        <time>2019-02-08T20:03:35Z</time>
      </trkpt>
      <trkpt lat="45.32475" lon="0.86312">
        <ele>186</ele>
        <time>2019-02-08T20:04:35Z</time>
      </trkpt>
      <trkpt lat="45.32432" lon="0.86312">
        <ele>184</ele>
        <time>2019-02-08T20:05:35Z</time>
      </trkpt>
      <trkpt lat="45.32393" lon="0.86314">
        <ele>181</ele>
        <time>2019-02-08T20:06:35Z</time>
      </trkpt>
      <trkpt lat="45.32355" lon="0.86306">
        <ele>179</ele>
        <time>2019-02-08T20:07:35Z</time>
      </trkpt>
      <trkpt lat="45.32336" lon="0.86297">
        <ele>178</ele>
        <time>2019-02-08T20:08:35Z</time>
      </trkpt>
      <trkpt lat="45.3227" lon="0.86274">
        <ele>181</ele>
        <time>2019-02-08T20:09:35Z</time>
      </trkpt>
      <trkpt lat="45.32241" lon="0.86262">
        <ele>183</ele>
        <time>2019-02-08T20:10:35Z</time>
      </trkpt>
      <trkpt lat="45.32156" lon="0.86195">
        <ele>187</ele>
        <time>2019-02-08T20:11:35Z</time>
      </trkpt>
      <trkpt lat="45.32113" lon="0.86177">
        <ele>188</ele>
        <time>2019-02-08T20:12:35Z</time>
      </trkpt>
      <trkpt lat="45.32083" lon="0.86154">
        <ele>188</ele>
        <time>2019-02-08T20:13:35Z</time>
      </trkpt>
      <trkpt lat="45.3206" lon="0.86201">
        <ele>187</ele>
        <time>2019-02-08T20:14:35Z</time>
      </trkpt>
      <trkpt lat="45.32018" lon="0.86295">
        <ele>188</ele>
        <time>2019-02-08T20:15:35Z</time>
      </trkpt>
      <trkpt lat="45.31969" lon="0.8642">
        <ele>192</ele>
        <time>2019-02-08T20:16:35Z</time>
      </trkpt>
      <trkpt lat="45.3187" lon="0.86353">
        <ele>189</ele>
        <time>2019-02-08T20:17:35Z</time>
      </trkpt>
      <trkpt lat="45.31772" lon="0.86288">
        <ele>182</ele>
        <time>2019-02-08T20:18:35Z</time>
      </trkpt>
      <trkpt lat="45.3163" lon="0.86194">
        <ele>184</ele>
        <time>2019-02-08T20:19:35Z</time>
      </trkpt>
      <trkpt lat="45.31546" lon="0.86154">
        <ele>188</ele>
        <time>2019-02-08T20:20:35Z</time>
      </trkpt>
      <trkpt lat="45.31524" lon="0.86138">
        <ele>189</ele>
        <time>2019-02-08T20:21:35Z</time>
      </trkpt>
      <trkpt lat="45.31451" lon="0.86057">
        <ele>192</ele>
        <time>2019-02-08T20:22:35Z</time>
      </trkpt>
      <trkpt lat="45.3142" lon="0.86118">
        <ele>191</ele>
        <time>2019-02-08T20:23:35Z</time>
      </trkpt>
      <trkpt lat="45.31327" lon="0.86232">
        <ele>186</ele>
        <time>2019-02-08T20:24:35Z</time>
      </trkpt>
      <trkpt lat="45.31289" lon="0.86265">
        <ele>183</ele>
        <time>2019-02-08T20:25:35Z</time>
      </trkpt>
      <trkpt lat="45.31222" lon="0.86348">
        <ele>178</ele>
        <time>2019-02-08T20:26:35Z</time>
      </trkpt>
      <trkpt lat="45.31204" lon="0.86389">
        <ele>178</ele>
        <time>2019-02-08T20:27:35Z</time>
      </trkpt>
      <trkpt lat="45.31173" lon="0.86464">
        <ele>174</ele>
        <time>2019-02-08T20:28:35Z</time>
      </trkpt>
      <trkpt lat="45.31157" lon="0.86487">
        <ele>173</ele>
        <time>2019-02-08T20:29:35Z</time>
      </trkpt>
      <trkpt lat="45.3112" lon="0.86529">
        <ele>170</ele>
        <time>2019-02-08T20:30:35Z</time>
      </trkpt>
      <trkpt lat="45.31079" lon="0.86603">
        <ele>168</ele>
        <time>2019-02-08T20:31:35Z</time>
      </trkpt>
      <trkpt lat="45.31051" lon="0.86644">
        <ele>169</ele>
        <time>2019-02-08T20:32:35Z</time>
      </trkpt>
      <trkpt lat="45.31001" lon="0.867">
        <ele>170</ele>
        <time>2019-02-08T20:33:35Z</time>
      </trkpt>
      <trkpt lat="45.30906" lon="0.86805">
        <ele>170</ele>
        <time>2019-02-08T20:34:35Z</time>
      </trkpt>
      <trkpt lat="45.30889" lon="0.86896">
        <ele>170</ele>
        <time>2019-02-08T20:35:35Z</time>
      </trkpt>
      <trkpt lat="45.30871" lon="0.86949">
        <ele>170</ele>
        <time>2019-02-08T20:36:35Z</time>
      </trkpt>
      <trkpt lat="45.30846" lon="0.86999">
        <ele>170</ele>
        <time>2019-02-08T20:37:35Z</time>
      </trkpt>
      <trkpt lat="45.30802" lon="0.87071">
        <ele>172</ele>
        <time>2019-02-08T20:38:35Z</time>
      </trkpt>
      <trkpt lat="45.30776" lon="0.87112">
        <ele>175</ele>
        <time>2019-02-08T20:39:35Z</time>
      </trkpt>
      <trkpt lat="45.30744" lon="0.8716">
        <ele>179</ele>
        <time>2019-02-08T20:40:35Z</time>
      </trkpt>
      <trkpt lat="45.3073" lon="0.87183">
        <ele>180</ele>
        <time>2019-02-08T20:41:35Z</time>
      </trkpt>
      <trkpt lat="45.30724" lon="0.87206">
        <ele>180</ele>
        <time>2019-02-08T20:42:35Z</time>
      </trkpt>
      <trkpt lat="45.30699" lon="0.87203">
        <ele>181</ele>
        <time>2019-02-08T20:43:35Z</time>
      </trkpt>
    </trkseg>
  </trk>
</gpx>